Time;durP1;ratioP1;P1;durP2;ratioP2;P2;SDS_P1;SDS_P2;PMS_P1;PMS_P2;Temp;Humidity;BMP_temperature;BMP_pressure;BME280_temperature;BME280_humidity;BME280_pressure;Samples;Min_cycle;Max_cycle;Signal;HPM_P1;HPM_P2
2022/07/07 00:02:14;;;;;;;3.47;0.45;;;15.30;99.90;;;;;;5005921;28;20034;-68
2022/07/07 00:04:42;;;;;;;4.10;0.38;;;15.30;99.90;;;;;;5011193;28;20031;-68
2022/07/07 00:07:09;;;;;;;3.75;0.20;;;15.40;99.90;;;;;;5019202;28;20030;-68
2022/07/07 00:09:37;;;;;;;3.33;0.30;;;15.70;99.90;;;;;;5008701;28;20026;-68
2022/07/07 00:12:05;;;;;;;1.08;0.20;;;15.80;99.90;;;;;;5010057;28;20030;-68
2022/07/07 00:14:34;;;;;;;1.42;0.25;;;15.80;99.90;;;;;;5019288;28;20018;-68
2022/07/07 00:17:01;;;;;;;0.73;0.10;;;15.80;99.90;;;;;;5023478;28;20034;-68
2022/07/07 00:19:29;;;;;;;2.83;0.50;;;15.80;99.90;;;;;;5006159;28;20109;-68
2022/07/07 00:21:56;;;;;;;2.20;0.28;;;15.80;99.90;;;;;;5000933;28;20109;-69
2022/07/07 00:24:24;;;;;;;4.15;0.55;;;15.70;99.90;;;;;;5003485;28;20088;-68
2022/07/07 00:26:51;;;;;;;2.85;0.98;;;15.70;99.90;;;;;;5011763;28;20381;-68
2022/07/07 00:29:19;;;;;;;2.92;0.35;;;15.80;99.90;;;;;;5018907;28;20034;-68
2022/07/07 00:31:46;;;;;;;4.03;0.28;;;15.90;99.90;;;;;;5020163;28;20026;-68
2022/07/07 00:34:14;;;;;;;2.35;0.50;;;15.80;99.90;;;;;;5017058;28;20502;-68
2022/07/07 00:36:43;;;;;;;3.28;0.50;;;15.80;99.90;;;;;;4999279;28;20038;-68
2022/07/07 00:39:10;;;;;;;1.40;0.20;;;15.60;99.90;;;;;;5018203;28;20112;-69
2022/07/07 00:41:37;;;;;;;4.18;0.65;;;15.60;99.90;;;;;;5026904;28;20044;-68
2022/07/07 00:44:06;;;;;;;1.52;0.20;;;15.60;99.90;;;;;;5016802;28;20069;-68
2022/07/07 00:46:43;;;;;;;3.85;0.57;;;15.60;99.90;;;;;;5020048;28;20107;-68
2022/07/07 00:49:12;;;;;;;1.85;0.38;;;15.60;99.90;;;;;;5007667;28;20030;-67
2022/07/07 00:51:41;;;;;;;1.20;0.22;;;15.60;99.90;;;;;;5011634;28;20097;-68
2022/07/07 00:54:09;;;;;;;3.58;0.52;;;15.70;99.90;;;;;;5015514;28;20140;-69
2022/07/07 00:56:38;;;;;;;4.90;0.63;;;15.60;99.90;;;;;;5013123;28;20034;-68
2022/07/07 00:59:06;;;;;;;5.20;0.68;;;15.50;99.90;;;;;;5009472;28;20033;-68
2022/07/07 01:01:37;;;;;;;3.13;0.30;;;15.60;99.90;;;;;;5002977;28;20073;-68
2022/07/07 01:04:07;;;;;;;5.63;0.93;;;15.60;99.90;;;;;;5014885;28;20060;-68
2022/07/07 01:06:35;;;;;;;2.38;0.50;;;15.70;99.90;;;;;;5012471;28;20050;-68
2022/07/07 01:09:03;;;;;;;3.95;0.63;;;15.80;99.90;;;;;;5020288;28;20041;-68
2022/07/07 01:11:51;;;;;;;3.92;0.82;;;15.90;99.90;;;;;;5011542;28;20483;-68
2022/07/07 01:14:18;;;;;;;5.82;0.85;;;16.10;99.90;;;;;;5008795;28;20044;-68
2022/07/07 01:16:47;;;;;;;12.60;8.77;;;16.30;99.90;;;;;;5018858;28;20030;-68
2022/07/07 01:19:15;;;;;;;5.05;1.17;;;16.40;99.90;;;;;;5008354;28;20420;-68
2022/07/07 01:21:58;;;;;;;2.05;0.50;;;16.50;99.90;;;;;;5003496;28;20018;-69
2022/07/07 01:24:27;;;;;;;4.75;0.45;;;16.60;99.90;;;;;;4999886;28;20041;-68
2022/07/07 01:27:08;;;;;;;5.20;0.70;;;16.60;99.90;;;;;;5004515;28;20033;-69
2022/07/07 01:29:58;;;;;;;2.92;0.40;;;16.70;99.90;;;;;;5005976;28;20036;-68
2022/07/07 01:32:27;;;;;;;6.53;1.10;;;16.80;99.90;;;;;;4997794;28;20102;-69
2022/07/07 01:34:55;;;;;;;8.10;0.50;;;16.90;99.90;;;;;;5010133;28;20026;-68
2022/07/07 01:37:24;;;;;;;4.43;0.57;;;17.10;99.90;;;;;;4998035;28;20030;-68
2022/07/07 01:39:53;;;;;;;7.35;0.77;;;17.10;99.90;;;;;;5012248;28;20089;-68
2022/07/07 01:42:21;;;;;;;2.75;0.47;;;16.90;99.90;;;;;;5016611;28;20065;-68
2022/07/07 01:44:51;;;;;;;6.35;0.50;;;16.90;99.90;;;;;;5011601;28;20026;-70
2022/07/07 01:47:21;;;;;;;5.65;0.70;;;16.90;99.90;;;;;;5001910;28;20850;-69
2022/07/07 01:49:48;;;;;;;4.95;0.63;;;16.90;99.90;;;;;;5008389;28;20037;-69
2022/07/07 01:52:15;;;;;;;4.03;0.30;;;16.80;99.90;;;;;;5010987;28;20076;-69
2022/07/07 01:54:43;;;;;;;2.50;0.32;;;16.70;99.90;;;;;;4999240;28;20057;-69
2022/07/07 01:57:11;;;;;;;2.85;0.57;;;16.70;99.90;;;;;;5006086;28;20026;-67
2022/07/07 01:59:39;;;;;;;7.15;0.40;;;16.80;99.90;;;;;;5008251;28;20028;-67
2022/07/07 02:02:06;;;;;;;5.13;0.30;;;16.80;99.90;;;;;;5011985;28;20034;-69
2022/07/07 02:04:36;;;;;;;3.42;0.70;;;16.70;99.90;;;;;;5011267;28;20046;-68
2022/07/07 02:07:03;;;;;;;6.78;0.30;;;16.70;99.90;;;;;;5008348;28;20018;-69
2022/07/07 02:09:31;;;;;;;3.50;0.80;;;16.70;99.90;;;;;;5009903;28;20034;-68
2022/07/07 02:11:58;;;;;;;3.13;0.60;;;16.90;99.90;;;;;;5000579;28;20109;-68
2022/07/07 02:14:26;;;;;;;5.47;0.85;;;17.10;99.90;;;;;;4995894;28;20098;-68
2022/07/07 02:16:54;;;;;;;2.50;0.70;;;17.30;99.90;;;;;;5005648;28;20118;-69
2022/07/07 02:19:22;;;;;;;4.22;0.45;;;17.20;99.90;;;;;;5004730;28;20399;-69
2022/07/07 02:21:49;;;;;;;4.05;0.50;;;17.30;99.90;;;;;;5011873;28;20053;-68
2022/07/07 02:24:16;;;;;;;5.15;1.13;;;17.60;99.90;;;;;;5008526;28;20085;-68
2022/07/07 02:26:43;;;;;;;3.60;0.30;;;17.70;99.90;;;;;;5005505;28;20482;-68
2022/07/07 02:29:11;;;;;;;2.22;0.40;;;17.70;99.90;;;;;;5002840;28;20487;-68
2022/07/07 02:31:38;;;;;;;4.32;0.43;;;18.40;99.90;;;;;;5008943;28;20029;-70
2022/07/07 02:34:05;;;;;;;4.78;0.52;;;19.00;99.90;;;;;;5005533;28;20064;-68
2022/07/07 02:36:33;;;;;;;1.88;0.47;;;19.20;99.90;;;;;;5000438;28;20482;-68
2022/07/07 02:39:00;;;;;;;2.13;0.75;;;19.20;99.90;;;;;;5008558;28;20014;-69
2022/07/07 02:41:27;;;;;;;4.50;0.35;;;19.50;99.90;;;;;;5001389;28;20092;-69
2022/07/07 02:43:55;;;;;;;1.98;0.25;;;19.20;99.90;;;;;;4999452;28;20030;-68
2022/07/07 02:46:22;;;;;;;2.40;0.40;;;18.60;99.90;;;;;;4996990;28;20065;-69
2022/07/07 02:48:50;;;;;;;3.63;0.30;;;18.40;99.90;;;;;;5008665;28;20390;-69
2022/07/07 02:51:17;;;;;;;3.92;0.43;;;18.10;99.90;;;;;;5012703;28;20026;-69
2022/07/07 02:53:44;;;;;;;9.18;0.60;;;17.90;99.90;;;;;;5010104;28;20040;-69
2022/07/07 02:56:11;;;;;;;4.35;1.08;;;17.70;99.90;;;;;;4999209;28;20026;-69
2022/07/07 02:58:39;;;;;;;2.78;0.40;;;17.70;99.90;;;;;;5005307;28;20022;-69
2022/07/07 03:01:06;;;;;;;5.25;0.68;;;17.70;99.90;;;;;;5013181;28;20083;-69
2022/07/07 03:03:33;;;;;;;4.47;0.70;;;17.60;99.90;;;;;;5002178;28;20034;-69
2022/07/07 03:06:01;;;;;;;2.80;0.32;;;17.60;99.90;;;;;;5001501;28;20119;-69
2022/07/07 03:08:28;;;;;;;3.88;0.65;;;17.50;99.90;;;;;;5002432;28;20999;-69
2022/07/07 03:10:55;;;;;;;3.00;0.70;;;17.50;99.90;;;;;;5009158;28;20074;-69
2022/07/07 03:13:22;;;;;;;4.90;0.85;;;17.40;99.90;;;;;;4999197;28;20019;-69
2022/07/07 03:15:50;;;;;;;4.70;0.50;;;17.50;99.90;;;;;;5000989;28;20038;-69
2022/07/07 03:18:17;;;;;;;7.05;0.57;;;17.50;99.90;;;;;;5001141;28;20084;-69
2022/07/07 03:20:44;;;;;;;3.78;0.40;;;17.80;99.90;;;;;;5000371;28;20030;-69
2022/07/07 03:23:11;;;;;;;2.95;0.50;;;17.90;99.90;;;;;;5002095;28;20829;-69
2022/07/07 03:25:39;;;;;;;2.85;0.30;;;18.30;99.90;;;;;;5002239;28;20525;-69
2022/07/07 03:28:06;;;;;;;4.95;0.60;;;18.30;99.90;;;;;;5004370;28;20032;-69
2022/07/07 03:30:33;;;;;;;3.42;0.82;;;18.00;99.90;;;;;;5006828;28;20365;-69
2022/07/07 03:33:00;;;;;;;2.33;0.38;;;17.90;99.90;;;;;;4998878;28;20449;-69
2022/07/07 03:35:28;;;;;;;0.95;0.30;;;17.80;99.90;;;;;;5005305;28;20022;-69
2022/07/07 03:37:55;;;;;;;3.70;0.57;;;17.80;99.90;;;;;;5001814;28;20602;-68
2022/07/07 03:40:23;;;;;;;3.95;0.40;;;17.80;99.90;;;;;;5005476;28;20041;-69
2022/07/07 03:42:50;;;;;;;4.05;0.50;;;17.80;99.90;;;;;;4999153;28;20042;-68
2022/07/07 03:45:18;;;;;;;4.60;0.40;;;17.70;99.90;;;;;;5011044;28;20033;-68
2022/07/07 03:47:45;;;;;;;3.15;0.40;;;17.50;99.90;;;;;;5003541;28;20100;-68
2022/07/07 03:50:12;;;;;;;6.38;0.52;;;17.50;99.90;;;;;;5003726;28;20115;-68
2022/07/07 03:52:39;;;;;;;3.50;0.25;;;17.50;99.90;;;;;;5002299;28;20019;-68
2022/07/07 03:55:08;;;;;;;3.50;0.85;;;17.50;99.90;;;;;;4998016;28;20037;-69
2022/07/07 03:57:36;;;;;;;3.63;0.52;;;17.50;99.90;;;;;;5003040;28;20036;-69
2022/07/07 04:00:05;;;;;;;3.28;0.70;;;17.60;99.90;;;;;;5005962;28;20018;-69
2022/07/07 04:02:32;;;;;;;4.63;1.60;;;17.40;99.90;;;;;;4999551;28;20387;-70
2022/07/07 04:04:59;;;;;;;5.35;0.98;;;17.20;99.90;;;;;;5003780;28;20033;-69
2022/07/07 04:07:26;;;;;;;4.85;0.70;;;17.20;99.90;;;;;;5000526;28;20034;-69
2022/07/07 04:09:54;;;;;;;8.07;0.80;;;17.00;99.90;;;;;;5008337;28;20088;-71
2022/07/07 04:12:21;;;;;;;5.32;1.27;;;16.90;99.90;;;;;;5010223;28;20036;-71
2022/07/07 04:14:48;;;;;;;3.42;1.00;;;16.70;99.90;;;;;;5001921;28;20874;-70
2022/07/07 04:17:15;;;;;;;5.88;0.95;;;16.70;99.90;;;;;;5008063;28;20751;-68
2022/07/07 04:19:42;;;;;;;4.95;0.50;;;16.70;99.90;;;;;;5011938;28;20096;-68
2022/07/07 04:22:10;;;;;;;6.90;1.58;;;16.70;99.90;;;;;;5017217;28;20027;-69
2022/07/07 04:24:37;;;;;;;4.90;0.85;;;16.70;99.90;;;;;;5021858;28;20029;-68
2022/07/07 04:27:05;;;;;;;4.55;0.60;;;16.60;99.90;;;;;;5015777;28;20034;-68
2022/07/07 04:29:33;;;;;;;4.90;0.98;;;16.60;99.90;;;;;;5026526;28;20029;-68
2022/07/07 04:32:00;;;;;;;8.15;1.10;;;16.60;99.90;;;;;;5013512;28;20026;-68
2022/07/07 04:34:27;;;;;;;4.30;0.88;;;16.60;99.90;;;;;;5015342;28;20502;-69
2022/07/07 04:36:55;;;;;;;6.82;1.00;;;16.40;99.90;;;;;;5008810;28;20022;-67
2022/07/07 04:39:22;;;;;;;6.10;1.50;;;16.50;99.90;;;;;;5000839;28;20105;-68
2022/07/07 04:41:50;;;;;;;9.90;1.55;;;16.40;99.90;;;;;;5019427;28;20105;-67
2022/07/07 04:44:17;;;;;;;8.13;1.52;;;16.30;99.90;;;;;;5021114;28;20088;-68
2022/07/07 04:46:44;;;;;;;11.82;2.05;;;16.30;99.90;;;;;;5019012;28;20461;-68
2022/07/07 04:49:11;;;;;;;5.63;1.50;;;16.30;99.90;;;;;;5020794;28;20085;-67
2022/07/07 04:51:39;;;;;;;7.63;1.40;;;16.20;99.90;;;;;;5014056;28;20026;-68
2022/07/07 04:54:06;;;;;;;7.22;1.33;;;16.20;99.90;;;;;;5017972;28;20096;-67
2022/07/07 04:56:33;;;;;;;6.13;0.73;;;16.00;99.90;;;;;;5022474;28;20026;-68
2022/07/07 04:59:00;;;;;;;4.95;0.88;;;15.90;99.90;;;;;;5011293;28;20041;-68
2022/07/07 05:01:28;;;;;;;4.90;1.15;;;15.90;99.90;;;;;;5008838;28;20041;-68
2022/07/07 05:03:55;;;;;;;8.27;1.38;;;15.90;99.90;;;;;;5009373;28;20040;-69
2022/07/07 05:06:22;;;;;;;7.53;1.23;;;15.80;99.90;;;;;;5008905;28;20061;-68
2022/07/07 05:08:49;;;;;;;8.77;1.25;;;15.60;99.90;;;;;;5002822;28;22528;-68
2022/07/07 05:11:17;;;;;;;9.07;1.73;;;15.60;99.90;;;;;;5004815;28;20030;-68
2022/07/07 05:13:44;;;;;;;7.53;1.58;;;15.60;99.90;;;;;;5013680;28;20022;-68
2022/07/07 05:16:11;;;;;;;15.07;1.63;;;15.60;99.90;;;;;;5003669;28;20050;-69
2022/07/07 05:18:38;;;;;;;7.28;1.15;;;15.50;99.90;;;;;;5011698;28;20038;-70
2022/07/07 05:21:06;;;;;;;6.78;1.63;;;15.50;99.90;;;;;;5004543;28;20365;-69
2022/07/07 05:23:33;;;;;;;10.27;1.10;;;15.40;99.90;;;;;;5015569;28;20045;-69
2022/07/07 05:26:00;;;;;;;7.30;1.20;;;15.40;99.90;;;;;;5011522;28;20398;-70
2022/07/07 05:28:30;;;;;;;8.45;1.00;;;15.40;99.90;;;;;;5002632;28;20038;-69
2022/07/07 05:30:57;;;;;;;10.20;1.83;;;15.40;99.90;;;;;;4997074;28;20030;-68
2022/07/07 05:33:24;;;;;;;5.75;1.13;;;15.40;99.90;;;;;;5010295;28;20034;-70
2022/07/07 05:35:51;;;;;;;3.28;0.90;;;15.40;99.90;;;;;;5005108;28;20490;-69
2022/07/07 05:38:19;;;;;;;4.90;1.02;;;15.40;99.90;;;;;;5011500;28;20026;-69
2022/07/07 05:40:46;;;;;;;4.57;0.88;;;15.40;99.90;;;;;;4999674;28;20034;-69
2022/07/07 05:43:13;;;;;;;5.68;0.68;;;15.40;99.90;;;;;;5012891;28;20096;-69
2022/07/07 05:45:40;;;;;;;6.45;1.23;;;15.30;99.90;;;;;;4998241;28;20066;-69
2022/07/07 05:48:07;;;;;;;6.15;1.55;;;15.30;99.90;;;;;;5003014;28;20089;-69
2022/07/07 05:50:35;;;;;;;5.68;1.23;;;15.30;99.90;;;;;;5007311;28;20112;-69
2022/07/07 05:53:02;;;;;;;5.78;2.00;;;15.30;99.90;;;;;;5004957;28;20030;-68
2022/07/07 05:55:29;;;;;;;8.63;1.35;;;15.30;99.90;;;;;;5006653;28;20161;-70
2022/07/07 05:57:58;;;;;;;6.65;1.30;;;15.30;99.90;;;;;;5010456;28;20049;-70
2022/07/07 06:00:25;;;;;;;5.85;0.65;;;15.30;99.90;;;;;;5012250;28;20037;-70
2022/07/07 06:02:53;;;;;;;8.65;0.90;;;15.20;99.90;;;;;;5005043;28;20169;-69
2022/07/07 06:05:22;;;;;;;10.35;1.70;;;15.10;99.90;;;;;;4997781;28;20164;-70
2022/07/07 06:07:49;;;;;;;6.60;0.98;;;15.00;99.90;;;;;;4996257;28;20033;-69
2022/07/07 06:10:17;;;;;;;7.55;1.13;;;15.00;99.90;;;;;;4995050;28;20037;-70
2022/07/07 06:12:44;;;;;;;4.68;1.13;;;14.90;99.90;;;;;;4994158;28;20034;-70
2022/07/07 06:15:11;;;;;;;5.57;1.13;;;14.90;99.90;;;;;;5008542;28;20022;-70
2022/07/07 06:17:40;;;;;;;6.85;0.80;;;14.90;99.90;;;;;;4996681;28;20065;-70
2022/07/07 06:20:08;;;;;;;4.20;0.93;;;14.80;99.90;;;;;;4995259;28;20054;-69
2022/07/07 06:22:36;;;;;;;7.95;1.00;;;14.80;99.90;;;;;;4994469;28;20026;-70
2022/07/07 06:25:03;;;;;;;6.93;0.88;;;14.80;99.90;;;;;;4994892;28;20022;-70
2022/07/07 06:27:31;;;;;;;9.38;1.48;;;14.80;99.90;;;;;;4994742;28;20049;-70
2022/07/07 06:29:58;;;;;;;7.78;1.13;;;14.80;99.90;;;;;;4994549;28;20088;-70
2022/07/07 06:32:25;;;;;;;8.82;1.52;;;14.80;99.90;;;;;;4996203;28;20065;-69
2022/07/07 06:34:52;;;;;;;8.55;1.98;;;14.70;99.90;;;;;;4994491;28;20033;-69
2022/07/07 06:37:20;;;;;;;11.45;1.70;;;14.70;99.90;;;;;;5008605;28;20022;-70
2022/07/07 06:39:47;;;;;;;9.27;1.40;;;14.70;99.90;;;;;;5015158;28;20022;-70
2022/07/07 06:42:14;;;;;;;6.03;1.02;;;14.60;99.90;;;;;;4998110;28;20023;-69
2022/07/07 06:44:42;;;;;;;9.82;1.15;;;14.60;99.90;;;;;;4997069;28;20126;-69
2022/07/07 06:47:09;;;;;;;5.28;1.10;;;14.50;99.90;;;;;;4998750;28;20133;-69
2022/07/07 06:49:36;;;;;;;7.47;1.42;;;14.50;99.90;;;;;;4995032;28;20105;-69
2022/07/07 06:52:04;;;;;;;8.27;1.45;;;14.50;99.90;;;;;;4995028;28;20489;-69
2022/07/07 06:54:31;;;;;;;9.63;1.52;;;14.40;99.90;;;;;;4996262;28;20030;-69
2022/07/07 06:56:58;;;;;;;10.48;1.73;;;14.40;99.90;;;;;;4995951;28;20093;-69
2022/07/07 06:59:26;;;;;;;5.25;1.35;;;14.30;99.90;;;;;;4998109;28;20080;-70
2022/07/07 07:01:53;;;;;;;6.72;1.10;;;14.30;99.90;;;;;;5014054;28;20026;-69
2022/07/07 07:04:20;;;;;;;7.18;1.40;;;14.30;99.90;;;;;;5016199;28;20395;-70
2022/07/07 07:06:47;;;;;;;7.57;1.02;;;14.30;99.90;;;;;;5014847;28;20534;-69
2022/07/07 07:09:15;;;;;;;9.13;2.00;;;14.30;99.90;;;;;;5015585;28;20104;-69
2022/07/07 07:11:42;;;;;;;8.80;1.40;;;14.20;99.90;;;;;;4998561;28;20026;-69
2022/07/07 07:14:09;;;;;;;7.68;1.65;;;14.20;99.90;;;;;;4995840;28;20026;-69
2022/07/07 07:16:36;;;;;;;10.50;1.90;;;14.20;99.90;;;;;;4997664;28;20084;-70
2022/07/07 07:19:04;;;;;;;11.20;1.25;;;14.20;99.90;;;;;;5003452;28;20072;-70
2022/07/07 07:21:31;;;;;;;7.38;1.50;;;14.20;99.90;;;;;;5005204;28;20036;-71
2022/07/07 07:23:58;;;;;;;10.55;2.42;;;14.20;99.90;;;;;;5000193;28;20045;-71
2022/07/07 07:26:26;;;;;;;10.38;2.08;;;14.10;99.90;;;;;;5008026;28;20030;-70
2022/07/07 07:28:53;;;;;;;12.70;1.70;;;14.10;99.90;;;;;;5001276;28;20026;-70
2022/07/07 07:31:20;;;;;;;10.27;1.45;;;14.00;99.90;;;;;;5004485;28;20037;-71
2022/07/07 07:33:48;;;;;;;11.90;1.75;;;14.00;99.90;;;;;;5006515;28;20040;-71
2022/07/07 07:36:15;;;;;;;11.68;1.48;;;14.00;99.90;;;;;;5000873;28;20026;-71
2022/07/07 07:38:44;;;;;;;6.40;1.20;;;14.00;99.90;;;;;;5007758;28;20102;-71
2022/07/07 07:41:12;;;;;;;14.68;2.40;;;13.90;99.90;;;;;;5001487;28;20066;-70
2022/07/07 07:43:39;;;;;;;7.72;1.85;;;13.90;99.90;;;;;;5002754;28;20101;-71
2022/07/07 07:46:07;;;;;;;9.52;1.92;;;13.90;99.90;;;;;;5005310;28;20076;-71
2022/07/07 07:48:34;;;;;;;9.30;2.10;;;13.90;99.90;;;;;;5003698;28;20030;-70
2022/07/07 07:51:01;;;;;;;14.38;2.67;;;13.80;99.90;;;;;;4999551;28;20560;-70
2022/07/07 07:53:28;;;;;;;6.63;1.75;;;13.90;99.90;;;;;;5014876;28;20037;-71
2022/07/07 07:55:56;;;;;;;9.15;2.92;;;13.80;99.90;;;;;;5016149;28;20482;-70
2022/07/07 07:58:23;;;;;;;11.05;2.13;;;13.80;99.90;;;;;;5007799;28;20031;-70
2022/07/07 08:00:50;;;;;;;8.05;1.73;;;13.80;99.90;;;;;;5009239;28;20073;-70
2022/07/07 08:03:18;;;;;;;11.65;1.83;;;13.80;99.90;;;;;;5014069;28;20042;-70
2022/07/07 08:05:45;;;;;;;10.15;1.52;;;13.80;99.90;;;;;;5013923;28;20100;-70
2022/07/07 08:08:12;;;;;;;12.77;2.08;;;13.70;99.90;;;;;;5009739;28;20034;-70
2022/07/07 08:10:39;;;;;;;12.40;2.35;;;13.70;99.90;;;;;;5014641;28;20441;-71
2022/07/07 08:13:07;;;;;;;10.82;2.83;;;13.70;99.90;;;;;;5015370;28;20073;-70
2022/07/07 08:15:34;;;;;;;13.38;2.05;;;13.70;99.90;;;;;;5012373;28;20026;-70
2022/07/07 08:18:01;;;;;;;7.70;2.08;;;13.70;99.90;;;;;;5012569;28;20034;-70
2022/07/07 08:20:29;;;;;;;10.05;3.08;;;13.70;99.90;;;;;;5014890;28;20018;-70
2022/07/07 08:22:56;;;;;;;12.32;2.35;;;13.70;99.90;;;;;;5015608;28;20379;-71
2022/07/07 08:25:23;;;;;;;7.85;2.33;;;13.60;99.90;;;;;;5001231;28;20031;-70
2022/07/07 08:27:51;;;;;;;10.02;2.10;;;13.60;99.90;;;;;;5015546;28;20494;-69
2022/07/07 08:30:18;;;;;;;9.38;1.83;;;13.60;99.90;;;;;;5013643;28;20038;-69
2022/07/07 08:32:45;;;;;;;8.43;2.17;;;13.70;99.90;;;;;;5011919;28;20069;-69
2022/07/07 08:35:14;;;;;;;10.98;2.25;;;13.60;99.90;;;;;;5013433;28;20029;-70
2022/07/07 08:37:42;;;;;;;11.35;2.28;;;13.60;99.90;;;;;;5011062;28;20169;-70
2022/07/07 08:40:10;;;;;;;13.63;2.40;;;13.60;99.90;;;;;;5008922;28;20018;-70
2022/07/07 08:42:38;;;;;;;19.48;2.67;;;13.50;99.90;;;;;;5015506;28;20026;-70
2022/07/07 08:45:06;;;;;;;9.82;1.92;;;13.50;99.90;;;;;;5009265;28;20045;-70
2022/07/07 08:47:33;;;;;;;10.50;1.77;;;13.50;99.90;;;;;;4999607;28;20137;-69
2022/07/07 08:50:01;;;;;;;10.65;1.90;;;13.40;99.90;;;;;;5010789;28;20034;-70
2022/07/07 08:52:29;;;;;;;10.73;2.80;;;13.40;99.90;;;;;;5011924;28;20029;-70
2022/07/07 08:54:57;;;;;;;9.38;2.42;;;13.40;99.90;;;;;;5011777;28;20029;-70
2022/07/07 08:57:25;;;;;;;18.50;2.72;;;13.40;99.90;;;;;;5000884;28;20161;-70
2022/07/07 08:59:56;;;;;;;15.23;3.25;;;13.30;99.90;;;;;;5007196;28;20029;-69
2022/07/07 09:02:24;;;;;;;13.82;3.20;;;13.30;99.90;;;;;;4998036;28;20030;-69
2022/07/07 09:04:52;;;;;;;24.88;3.40;;;13.30;99.90;;;;;;5015292;28;20407;-69
2022/07/07 09:07:20;;;;;;;10.02;2.47;;;13.30;99.90;;;;;;5014101;28;20033;-69
2022/07/07 09:09:53;;;;;;;12.77;3.33;;;13.30;99.90;;;;;;4997080;28;20031;-70
2022/07/07 09:12:21;;;;;;;16.90;4.25;;;13.30;99.90;;;;;;5011716;28;20081;-69
2022/07/07 09:14:50;;;;;;;13.98;3.13;;;13.10;99.90;;;;;;4995579;28;20022;-70
2022/07/07 09:17:27;;;;;;;13.02;3.60;;;13.10;99.90;;;;;;5013695;28;20037;-70
2022/07/07 09:20:14;;;;;;;10.13;2.88;;;13.20;99.90;;;;;;5003565;28;20041;-69
2022/07/07 09:22:50;;;;;;;14.40;2.67;;;13.10;99.90;;;;;;5016579;28;20080;-68
2022/07/07 09:25:27;;;;;;;16.20;3.85;;;13.00;99.90;;;;;;5016063;28;20038;-68
2022/07/07 09:28:04;;;;;;;10.10;3.17;;;12.90;99.90;;;;;;4999467;28;20517;-68
2022/07/07 09:30:43;;;;;;;12.70;4.22;;;13.00;99.90;;;;;;5006137;28;20382;-69
2022/07/07 09:33:16;;;;;;;14.43;4.82;;;13.00;99.90;;;;;;5016462;28;20022;-68
2022/07/07 09:38:31;;;;;;;12.57;3.60;;;12.90;99.90;;;;;;4999107;28;20065;-68
2022/07/07 09:41:10;;;;;;;15.48;3.95;;;12.90;99.90;;;;;;5002000;28;20430;-68
2022/07/07 09:43:52;;;;;;;16.85;3.50;;;12.90;99.90;;;;;;5008130;28;20464;-68
2022/07/07 09:46:23;;;;;;;12.32;3.30;;;12.80;99.90;;;;;;5004804;28;20056;-67
2022/07/07 09:48:55;;;;;;;11.48;3.80;;;12.80;99.90;;;;;;5006100;28;20014;-69
2022/07/07 09:51:25;;;;;;;9.52;3.03;;;12.80;99.90;;;;;;5019160;28;20065;-68
2022/07/07 09:54:03;;;;;;;18.00;4.15;;;12.80;99.90;;;;;;5018952;28;20034;-68
2022/07/07 09:56:42;;;;;;;11.85;2.90;;;12.80;99.90;;;;;;5019072;28;20029;-68
2022/07/07 09:59:11;;;;;;;13.82;4.60;;;12.70;99.90;;;;;;5018213;28;20030;-68
2022/07/07 10:01:41;;;;;;;8.07;2.92;;;12.70;99.90;;;;;;5001547;28;20019;-69
2022/07/07 10:04:14;;;;;;;13.45;3.70;;;12.70;99.90;;;;;;5010328;28;20033;-69
2022/07/07 10:06:43;;;;;;;16.53;4.43;;;12.60;99.90;;;;;;5017724;28;20018;-69
2022/07/07 10:09:12;;;;;;;12.25;3.38;;;12.60;99.90;;;;;;5001408;28;20023;-69
2022/07/07 10:11:45;;;;;;;22.92;4.40;;;12.60;99.90;;;;;;5012043;28;20589;-69
2022/07/07 10:14:34;;;;;;;11.18;3.05;;;12.50;99.90;;;;;;5007914;28;20021;-68
2022/07/07 10:17:03;;;;;;;9.43;2.95;;;12.50;99.90;;;;;;4998177;28;20054;-69
2022/07/07 10:19:30;;;;;;;6.80;2.78;;;12.50;99.90;;;;;;5001769;28;20068;-68
2022/07/07 10:21:59;;;;;;;14.85;3.30;;;12.40;99.90;;;;;;5008942;28;20018;-68
2022/07/07 10:24:35;;;;;;;10.13;2.97;;;12.40;99.90;;;;;;5016746;28;20761;-68
2022/07/07 10:27:04;;;;;;;7.47;3.58;;;12.40;99.90;;;;;;5008316;28;20030;-68
2022/07/07 10:29:39;;;;;;;9.65;3.13;;;12.30;99.90;;;;;;5015883;28;20037;-68
2022/07/07 10:32:09;;;;;;;13.82;3.53;;;12.30;99.90;;;;;;5017818;28;20018;-69
2022/07/07 10:34:48;;;;;;;11.70;3.60;;;12.30;99.90;;;;;;5007145;28;20029;-69
2022/07/07 10:37:15;;;;;;;13.23;3.58;;;12.30;99.90;;;;;;5014854;28;20025;-69
2022/07/07 10:39:46;;;;;;;7.78;2.92;;;12.30;99.90;;;;;;5014187;28;20030;-69
2022/07/07 10:42:16;;;;;;;16.08;4.38;;;12.20;99.90;;;;;;4997572;28;21017;-69
2022/07/07 10:44:51;;;;;;;11.30;3.38;;;12.10;99.90;;;;;;5014668;28;20500;-69
2022/07/07 10:47:18;;;;;;;10.52;3.92;;;12.10;99.90;;;;;;5017360;28;20137;-69
2022/07/07 10:49:48;;;;;;;12.32;4.72;;;12.00;99.90;;;;;;5013187;28;20030;-68
2022/07/07 10:52:23;;;;;;;11.40;4.30;;;11.80;99.90;;;;;;5011311;28;20030;-68
2022/07/07 10:55:03;;;;;;;8.45;3.60;;;11.90;99.90;;;;;;4999217;28;20049;-68
2022/07/07 10:57:41;;;;;;;10.15;4.22;;;11.80;99.90;;;;;;5000050;28;20042;-69
2022/07/07 11:00:26;;;;;;;8.68;3.30;;;11.80;99.90;;;;;;5011544;28;20026;-69
2022/07/07 11:03:10;;;;;;;7.10;4.38;;;11.70;99.90;;;;;;5015809;28;20399;-69
2022/07/07 11:05:42;;;;;;;11.57;3.13;;;11.70;99.90;;;;;;5016238;28;20095;-69
2022/07/07 11:08:11;;;;;;;8.57;3.55;;;11.70;99.90;;;;;;5006175;28;20434;-69
2022/07/07 11:10:52;;;;;;;10.15;3.72;;;11.80;99.90;;;;;;5007521;28;20018;-69
2022/07/07 11:13:42;;;;;;;6.35;3.10;;;11.70;99.90;;;;;;5006080;28;20529;-69
2022/07/07 11:16:16;;;;;;;8.65;2.38;;;11.60;99.90;;;;;;5002524;28;20029;-69
2022/07/07 11:18:47;;;;;;;8.23;2.40;;;11.60;99.90;;;;;;5014556;28;20026;-70
2022/07/07 11:21:15;;;;;;;6.15;2.22;;;11.50;99.90;;;;;;5013005;28;20491;-70
2022/07/07 11:23:56;;;;;;;3.85;1.75;;;11.60;99.90;;;;;;5013641;28;20084;-70
2022/07/07 11:26:25;;;;;;;6.70;1.58;;;11.60;99.90;;;;;;5007906;28;20105;-70
2022/07/07 11:28:55;;;;;;;6.75;2.05;;;11.50;99.90;;;;;;4995683;28;20387;-70
2022/07/07 11:31:23;;;;;;;6.70;2.30;;;11.40;99.90;;;;;;5012679;28;20030;-70
2022/07/07 11:33:56;;;;;;;6.40;2.10;;;11.40;99.90;;;;;;5007371;28;20101;-69
2022/07/07 11:36:27;;;;;;;4.82;2.60;;;11.40;99.90;;;;;;5005013;28;20030;-69
2022/07/07 11:38:58;;;;;;;7.15;2.25;;;11.40;99.90;;;;;;5008917;28;20462;-69
2022/07/07 11:41:45;;;;;;;4.65;1.60;;;11.40;99.90;;;;;;5005638;28;20021;-69
2022/07/07 11:44:23;;;;;;;6.00;2.05;;;11.40;99.90;;;;;;5007462;28;20081;-69
2022/07/07 11:46:53;;;;;;;4.70;1.52;;;11.30;99.90;;;;;;5003610;28;20074;-70
2022/07/07 11:49:22;;;;;;;5.15;1.77;;;11.20;99.90;;;;;;5002889;28;20117;-70
2022/07/07 11:51:49;;;;;;;3.63;1.63;;;11.10;99.90;;;;;;5001966;28;20022;-70
2022/07/07 11:54:16;;;;;;;3.17;1.90;;;11.10;99.90;;;;;;5002821;28;20018;-69
2022/07/07 11:56:43;;;;;;;5.32;2.15;;;11.00;99.90;;;;;;5001239;28;20355;-69
2022/07/07 11:59:11;;;;;;;2.55;1.75;;;11.00;99.90;;;;;;5000313;28;20097;-69
2022/07/07 12:01:43;;;;;;;3.65;2.08;;;11.00;99.90;;;;;;5003514;28;20044;-70
2022/07/07 12:04:22;;;;;;;5.07;2.20;;;11.00;99.90;;;;;;5003171;28;20048;-69
2022/07/07 12:06:51;;;;;;;2.55;1.95;;;10.90;99.90;;;;;;5031264;28;20076;-70
2022/07/07 12:09:19;;;;;;;2.47;1.77;;;11.00;99.90;;;;;;5018022;28;20026;-69
2022/07/07 12:11:47;;;;;;;6.97;2.22;;;11.00;99.90;;;;;;5003430;28;20172;-70
2022/07/07 12:14:15;;;;;;;3.67;1.63;;;10.80;99.90;;;;;;5004314;28;20491;-70
2022/07/07 12:16:48;;;;;;;3.30;1.40;;;10.80;99.90;;;;;;5006840;28;20055;-70
2022/07/07 12:19:17;;;;;;;2.10;1.40;;;10.70;99.90;;;;;;5011294;28;20021;-70
2022/07/07 12:21:50;;;;;;;3.55;1.63;;;10.70;99.90;;;;;;5011183;28;20030;-69
2022/07/07 12:24:26;;;;;;;2.70;1.35;;;10.70;99.90;;;;;;5011852;28;20092;-69
2022/07/07 12:26:55;;;;;;;2.13;1.27;;;10.60;99.90;;;;;;5009484;28;20029;-69
2022/07/07 12:29:23;;;;;;;3.50;1.77;;;10.70;99.90;;;;;;5005032;28;20033;-69
2022/07/07 12:31:51;;;;;;;6.78;1.85;;;10.70;99.90;;;;;;5028123;28;20029;-69
2022/07/07 12:34:22;;;;;;;5.60;1.77;;;10.80;99.90;;;;;;5013116;28;20049;-69
2022/07/07 12:36:50;;;;;;;2.58;1.00;;;10.70;99.90;;;;;;5014325;28;20378;-69
2022/07/07 12:39:18;;;;;;;2.97;1.20;;;10.60;99.90;;;;;;5015533;28;20030;-70
2022/07/07 12:41:53;;;;;;;7.43;1.35;;;10.60;99.90;;;;;;5011451;28;20030;-69
2022/07/07 12:44:30;;;;;;;1.33;1.00;;;10.60;99.90;;;;;;5006376;28;20415;-69
2022/07/07 12:46:58;;;;;;;2.35;1.05;;;10.60;99.90;;;;;;5010608;28;20136;-69
2022/07/07 12:49:26;;;;;;;1.45;1.00;;;10.70;99.90;;;;;;5004712;28;20033;-69
2022/07/07 12:51:57;;;;;;;3.05;1.00;;;10.70;99.90;;;;;;5006009;28;20016;-69
2022/07/07 12:54:27;;;;;;;3.65;1.30;;;10.70;99.90;;;;;;5013443;28;20112;-69
2022/07/07 12:57:02;;;;;;;2.65;0.90;;;10.50;99.90;;;;;;5015062;28;20050;-69
2022/07/07 12:59:40;;;;;;;3.22;1.25;;;10.50;99.90;;;;;;5015049;28;20026;-69